sensor_id;sensor_type;location;lat;lon;timestamp;pressure;altitude;pressure_sealevel;temperature;humidity
42001;BME280;27689;48.390;10.856;2022-11-20T00:02:02;95576.56;;;5.34;100.00
42001;BME280;27689;48.390;10.856;2022-11-20T00:04:46;95574.75;;;5.35;100.00
42001;BME280;27689;48.390;10.856;2022-11-20T00:07:30;95572.97;;;5.35;100.00
42001;BME280;27689;48.390;10.856;2022-11-20T00:10:14;95571.91;;;5.38;100.00
42001;BME280;27689;48.390;10.856;2022-11-20T00:12:58;95574.91;;;5.33;100.00
42001;BME280;27689;48.390;10.856;2022-11-20T00:15:42;95582.53;;;5.35;100.00
42001;BME280;27689;48.390;10.856;2022-11-20T00:18:26;95575.16;;;5.30;100.00
42001;BME280;27689;48.390;10.856;2022-11-20T00:21:22;95592.06;;;5.24;100.00
42001;BME280;27689;48.390;10.856;2022-11-20T00:24:08;95595.59;;;5.23;100.00
42001;BME280;27689;48.390;10.856;2022-11-20T00:26:54;95585.47;;;5.20;100.00
42001;BME280;27689;48.390;10.856;2022-11-20T00:29:38;95595.59;;;5.23;100.00
42001;BME280;27689;48.390;10.856;2022-11-20T00:32:22;95596.25;;;5.16;100.00
42001;BME280;27689;48.390;10.856;2022-11-20T00:35:06;95604.63;;;5.19;100.00
42001;BME280;27689;48.390;10.856;2022-11-20T00:37:49;95601.31;;;5.17;100.00
42001;BME280;27689;48.390;10.856;2022-11-20T00:40:33;95600.50;;;5.17;100.00
42001;BME280;27689;48.390;10.856;2022-11-20T00:43:17;95608.00;;;5.20;100.00
42001;BME280;27689;48.390;10.856;2022-11-20T00:46:06;95615.00;;;5.19;100.00
42001;BME280;27689;48.390;10.856;2022-11-20T00:48:51;95596.03;;;5.08;100.00
42001;BME280;27689;48.390;10.856;2022-11-20T00:51:35;95607.59;;;5.15;100.00
42001;BME280;27689;48.390;10.856;2022-11-20T00:54:19;95602.06;;;5.08;100.00
42001;BME280;27689;48.390;10.856;2022-11-20T00:57:03;95607.38;;;5.07;100.00
42001;BME280;27689;48.390;10.856;2022-11-20T00:59:47;95608.31;;;5.06;100.00
42001;BME280;27689;48.390;10.856;2022-11-20T01:02:31;95621.19;;;5.07;100.00
42001;BME280;27689;48.390;10.856;2022-11-20T01:05:16;95616.28;;;5.04;100.00
42001;BME280;27689;48.390;10.856;2022-11-20T01:07:59;95614.22;;;5.08;100.00
42001;BME280;27689;48.390;10.856;2022-11-20T01:10:44;95607.59;;;5.15;100.00
42001;BME280;27689;48.390;10.856;2022-11-20T01:13:29;95611.97;;;5.14;100.00
42001;BME280;27689;48.390;10.856;2022-11-20T01:16:25;95617.22;;;5.24;100.00
42001;BME280;27689;48.390;10.856;2022-11-20T01:19:15;95615.81;;;5.20;100.00
42001;BME280;27689;48.390;10.856;2022-11-20T01:22:00;95615.75;;;5.10;100.00
42001;BME280;27689;48.390;10.856;2022-11-20T01:24:43;95620.22;;;5.08;100.00
42001;BME280;27689;48.390;10.856;2022-11-20T01:27:27;95621.31;;;5.06;100.00
42001;BME280;27689;48.390;10.856;2022-11-20T01:30:12;95618.53;;;4.97;100.00
42001;BME280;27689;48.390;10.856;2022-11-20T01:32:56;95616.06;;;4.96;100.00
42001;BME280;27689;48.390;10.856;2022-11-20T01:35:40;95631.38;;;4.99;100.00
42001;BME280;27689;48.390;10.856;2022-11-20T01:38:24;95634.22;;;4.96;100.00
42001;BME280;27689;48.390;10.856;2022-11-20T01:41:10;95634.69;;;4.90;100.00
42001;BME280;27689;48.390;10.856;2022-11-20T01:44:17;95638.28;;;4.89;100.00
42001;BME280;27689;48.390;10.856;2022-11-20T01:47:04;95642.50;;;4.90;100.00
42001;BME280;27689;48.390;10.856;2022-11-20T01:50:04;95639.66;;;4.93;100.00
42001;BME280;27689;48.390;10.856;2022-11-20T01:52:52;95646.06;;;4.89;100.00
42001;BME280;27689;48.390;10.856;2022-11-20T01:55:47;95646.41;;;4.84;100.00
42001;BME280;27689;48.390;10.856;2022-11-20T01:58:35;95639.81;;;4.80;100.00
42001;BME280;27689;48.390;10.856;2022-11-20T02:01:22;95640.06;;;4.77;100.00
42001;BME280;27689;48.390;10.856;2022-11-20T02:04:08;95638.69;;;4.73;100.00
42001;BME280;27689;48.390;10.856;2022-11-20T02:06:59;95639.50;;;4.74;100.00
42001;BME280;27689;48.390;10.856;2022-11-20T02:09:44;95642.88;;;4.85;100.00
42001;BME280;27689;48.390;10.856;2022-11-20T02:12:28;95638.28;;;4.78;100.00
42001;BME280;27689;48.390;10.856;2022-11-20T02:15:32;95623.00;;;4.75;100.00
42001;BME280;27689;48.390;10.856;2022-11-20T02:18:19;95633.50;;;4.73;100.00
42001;BME280;27689;48.390;10.856;2022-11-20T02:21:33;95627.13;;;4.66;100.00
42001;BME280;27689;48.390;10.856;2022-11-20T02:24:19;95630.66;;;4.65;100.00
42001;BME280;27689;48.390;10.856;2022-11-20T02:27:12;95635.38;;;4.60;100.00
42001;BME280;27689;48.390;10.856;2022-11-20T02:30:00;95619.97;;;4.58;100.00
42001;BME280;27689;48.390;10.856;2022-11-20T02:32:45;95627.38;;;4.63;100.00
42001;BME280;27689;48.390;10.856;2022-11-20T02:38:14;95628.19;;;4.64;100.00
42001;BME280;27689;48.390;10.856;2022-11-20T02:40:58;95631.31;;;4.57;100.00
42001;BME280;27689;48.390;10.856;2022-11-20T02:43:42;95634.59;;;4.59;100.00
42001;BME280;27689;48.390;10.856;2022-11-20T02:46:26;95633.88;;;4.57;100.00
42001;BME280;27689;48.390;10.856;2022-11-20T02:49:10;95638.72;;;4.51;100.00
42001;BME280;27689;48.390;10.856;2022-11-20T02:51:54;95627.53;;;4.50;100.00
42001;BME280;27689;48.390;10.856;2022-11-20T02:54:38;95629.66;;;4.45;100.00
42001;BME280;27689;48.390;10.856;2022-11-20T02:57:23;95631.66;;;4.53;100.00
42001;BME280;27689;48.390;10.856;2022-11-20T03:00:07;95628.94;;;4.54;100.00
42001;BME280;27689;48.390;10.856;2022-11-20T03:02:51;95619.16;;;4.47;100.00
42001;BME280;27689;48.390;10.856;2022-11-20T03:05:35;95625.00;;;4.60;100.00
42001;BME280;27689;48.390;10.856;2022-11-20T03:08:19;95627.59;;;4.60;100.00
42001;BME280;27689;48.390;10.856;2022-11-20T03:11:05;95628.59;;;4.59;100.00
42001;BME280;27689;48.390;10.856;2022-11-20T03:13:49;95628.31;;;4.62;100.00
42001;BME280;27689;48.390;10.856;2022-11-20T03:16:33;95626.31;;;4.66;100.00
42001;BME280;27689;48.390;10.856;2022-11-20T03:19:18;95629.41;;;4.59;100.00
42001;BME280;27689;48.390;10.856;2022-11-20T03:22:02;95623.84;;;4.64;100.00
42001;BME280;27689;48.390;10.856;2022-11-20T03:24:45;95623.22;;;4.72;100.00
42001;BME280;27689;48.390;10.856;2022-11-20T03:27:34;95620.06;;;4.68;100.00
42001;BME280;27689;48.390;10.856;2022-11-20T03:30:18;95623.00;;;4.64;100.00
42001;BME280;27689;48.390;10.856;2022-11-20T03:33:02;95627.38;;;4.63;100.00
42001;BME280;27689;48.390;10.856;2022-11-20T03:35:46;95624.31;;;4.69;100.00
42001;BME280;27689;48.390;10.856;2022-11-20T03:38:30;95631.50;;;4.66;100.00
42001;BME280;27689;48.390;10.856;2022-11-20T03:41:19;95626.13;;;4.78;100.00
42001;BME280;27689;48.390;10.856;2022-11-20T03:44:06;95619.09;;;4.69;100.00
42001;BME280;27689;48.390;10.856;2022-11-20T03:46:50;95618.53;;;4.66;100.00
42001;BME280;27689;48.390;10.856;2022-11-20T03:49:34;95618.41;;;4.67;100.00
42001;BME280;27689;48.390;10.856;2022-11-20T03:52:18;95617.69;;;4.65;100.00
42001;BME280;27689;48.390;10.856;2022-11-20T03:55:02;95622.31;;;4.61;100.00
42001;BME280;27689;48.390;10.856;2022-11-20T03:57:47;95624.66;;;4.65;100.00
42001;BME280;27689;48.390;10.856;2022-11-20T04:00:31;95621.88;;;4.56;100.00
42001;BME280;27689;48.390;10.856;2022-11-20T04:03:15;95627.84;;;4.68;100.00
42001;BME280;27689;48.390;10.856;2022-11-20T04:06:06;95617.00;;;4.63;100.00
42001;BME280;27689;48.390;10.856;2022-11-20T04:08:51;95626.44;;;4.64;100.00
42001;BME280;27689;48.390;10.856;2022-11-20T04:11:39;95623.94;;;4.63;100.00
42001;BME280;27689;48.390;10.856;2022-11-20T04:14:24;95626.44;;;4.64;100.00
42001;BME280;27689;48.390;10.856;2022-11-20T04:17:08;95624.66;;;4.65;100.00
42001;BME280;27689;48.390;10.856;2022-11-20T04:19:52;95625.72;;;4.62;100.00
42001;BME280;27689;48.390;10.856;2022-11-20T04:22:36;95634.44;;;4.61;100.00
42001;BME280;27689;48.390;10.856;2022-11-20T04:25:20;95630.56;;;4.67;100.00
42001;BME280;27689;48.390;10.856;2022-11-20T04:28:04;95633.16;;;4.67;100.00
42001;BME280;27689;48.390;10.856;2022-11-20T04:30:48;95623.25;;;4.60;100.00
42001;BME280;27689;48.390;10.856;2022-11-20T04:33:32;95626.53;;;4.63;100.00
42001;BME280;27689;48.390;10.856;2022-11-20T04:36:21;95621.34;;;4.63;100.00
42001;BME280;27689;48.390;10.856;2022-11-20T04:39:06;95625.47;;;4.65;100.00
42001;BME280;27689;48.390;10.856;2022-11-20T04:41:49;95625.00;;;4.60;100.00
42001;BME280;27689;48.390;10.856;2022-11-20T04:44:54;95618.75;;;4.63;100.00
42001;BME280;27689;48.390;10.856;2022-11-20T04:47:38;95623.47;;;4.69;100.00
42001;BME280;27689;48.390;10.856;2022-11-20T04:50:22;95612.38;;;4.67;100.00
42001;BME280;27689;48.390;10.856;2022-11-20T04:53:06;95617.56;;;4.67;100.00
42001;BME280;27689;48.390;10.856;2022-11-20T04:55:50;95626.00;;;4.59;100.00
42001;BME280;27689;48.390;10.856;2022-11-20T04:58:35;95619.22;;;4.68;100.00
42001;BME280;27689;48.390;10.856;2022-11-20T05:01:23;95620.28;;;4.65;100.00
42001;BME280;27689;48.390;10.856;2022-11-20T05:04:08;95608.91;;;4.56;100.00
42001;BME280;27689;48.390;10.856;2022-11-20T05:06:51;95617.38;;;4.58;100.00
42001;BME280;27689;48.390;10.856;2022-11-20T05:09:35;95620.22;;;4.55;100.00
42001;BME280;27689;48.390;10.856;2022-11-20T05:12:19;95616.09;;;4.53;100.00
42001;BME280;27689;48.390;10.856;2022-11-20T05:15:04;95616.31;;;4.50;100.00
42001;BME280;27689;48.390;10.856;2022-11-20T05:17:49;95612.91;;;4.49;100.00
42001;BME280;27689;48.390;10.856;2022-11-20T05:20:33;95611.97;;;4.50;100.00
42001;BME280;27689;48.390;10.856;2022-11-20T05:23:17;95609.50;;;4.49;100.00
42001;BME280;27689;48.390;10.856;2022-11-20T05:26:01;95598.81;;;4.42;100.00
42001;BME280;27689;48.390;10.856;2022-11-20T05:28:46;95617.16;;;4.50;100.00
42001;BME280;27689;48.390;10.856;2022-11-20T05:31:30;95619.88;;;4.49;100.00
42001;BME280;27689;48.390;10.856;2022-11-20T05:34:14;95623.28;;;4.49;100.00
42001;BME280;27689;48.390;10.856;2022-11-20T05:36:59;95627.41;;;4.52;100.00
42001;BME280;27689;48.390;10.856;2022-11-20T05:39:43;95631.41;;;4.56;100.00
42001;BME280;27689;48.390;10.856;2022-11-20T05:42:30;95621.41;;;4.51;100.00
42001;BME280;27689;48.390;10.856;2022-11-20T05:45:14;95626.00;;;4.48;100.00
42001;BME280;27689;48.390;10.856;2022-11-20T05:47:59;95616.38;;;4.39;100.00
42001;BME280;27689;48.390;10.856;2022-11-20T05:50:47;95625.78;;;4.40;100.00
42001;BME280;27689;48.390;10.856;2022-11-20T05:53:32;95622.25;;;4.41;100.00
42001;BME280;27689;48.390;10.856;2022-11-20T05:56:18;95629.41;;;4.48;100.00
42001;BME280;27689;48.390;10.856;2022-11-20T05:59:02;95624.47;;;4.56;100.00
42001;BME280;27689;48.390;10.856;2022-11-20T06:01:46;95628.34;;;4.51;100.00
42001;BME280;27689;48.390;10.856;2022-11-20T06:04:30;95635.44;;;4.49;100.00
42001;BME280;27689;48.390;10.856;2022-11-20T06:07:14;95630.34;;;4.47;100.00
42001;BME280;27689;48.390;10.856;2022-11-20T06:09:58;95634.84;;;4.56;100.00
42001;BME280;27689;48.390;10.856;2022-11-20T06:12:42;95628.00;;;4.55;100.00
42001;BME280;27689;48.390;10.856;2022-11-20T06:15:26;95633.31;;;4.54;100.00
42001;BME280;27689;48.390;10.856;2022-11-20T06:18:10;95629.19;;;4.51;100.00
42001;BME280;27689;48.390;10.856;2022-11-20T06:23:51;95639.56;;;4.51;100.00
42001;BME280;27689;48.390;10.856;2022-11-20T06:26:36;95650.16;;;4.59;100.00
42001;BME280;27689;48.390;10.856;2022-11-20T06:29:19;95641.44;;;4.49;100.00
42001;BME280;27689;48.390;10.856;2022-11-20T06:32:04;95635.81;;;4.44;100.00
42001;BME280;27689;48.390;10.856;2022-11-20T06:34:48;95634.03;;;4.45;100.00
42001;BME280;27689;48.390;10.856;2022-11-20T06:37:32;95647.81;;;4.45;100.00
42001;BME280;27689;48.390;10.856;2022-11-20T06:40:16;95646.84;;;4.46;100.00
42001;BME280;27689;48.390;10.856;2022-11-20T06:43:00;95646.03;;;4.46;100.00
42001;BME280;27689;48.390;10.856;2022-11-20T06:45:44;95647.44;;;4.50;100.00
42001;BME280;27689;48.390;10.856;2022-11-20T06:48:29;95661.94;;;4.52;100.00
42001;BME280;27689;48.390;10.856;2022-11-20T06:51:14;95660.66;;;4.58;100.00
42001;BME280;27689;48.390;10.856;2022-11-20T06:53:58;95660.66;;;4.58;100.00
42001;BME280;27689;48.390;10.856;2022-11-20T06:56:42;95663.38;;;4.56;100.00
42001;BME280;27689;48.390;10.856;2022-11-20T06:59:25;95664.19;;;4.57;100.00
42001;BME280;27689;48.390;10.856;2022-11-20T07:02:11;95668.88;;;4.63;100.00
42001;BME280;27689;48.390;10.856;2022-11-20T07:04:56;95663.56;;;4.65;100.00
42001;BME280;27689;48.390;10.856;2022-11-20T07:07:40;95671.94;;;4.68;100.00
42001;BME280;27689;48.390;10.856;2022-11-20T07:10:24;95675.13;;;4.72;100.00
42001;BME280;27689;48.390;10.856;2022-11-20T07:13:08;95669.13;;;4.71;100.00
42001;BME280;27689;48.390;10.856;2022-11-20T07:15:52;95664.50;;;4.75;100.00
42001;BME280;27689;48.390;10.856;2022-11-20T07:18:36;95667.78;;;4.77;100.00
42001;BME280;27689;48.390;10.856;2022-11-20T07:21:20;95670.13;;;4.80;100.00
42001;BME280;27689;48.390;10.856;2022-11-20T07:24:04;95669.06;;;4.82;100.00
42001;BME280;27689;48.390;10.856;2022-11-20T07:26:49;95656.81;;;4.84;100.00
42001;BME280;27689;48.390;10.856;2022-11-20T07:29:33;95671.03;;;4.90;100.00
42001;BME280;27689;48.390;10.856;2022-11-20T07:32:17;95668.19;;;4.93;100.00
42001;BME280;27689;48.390;10.856;2022-11-20T07:35:01;95674.69;;;4.99;100.00
42001;BME280;27689;48.390;10.856;2022-11-20T07:37:45;95664.88;;;5.02;100.00
42001;BME280;27689;48.390;10.856;2022-11-20T07:40:30;95681.34;;;5.12;100.00
42001;BME280;27689;48.390;10.856;2022-11-20T07:43:14;95658.88;;;5.22;100.00
42001;BME280;27689;48.390;10.856;2022-11-20T07:45:59;95663.22;;;5.33;100.00
42001;BME280;27689;48.390;10.856;2022-11-20T07:48:43;95662.06;;;5.26;100.00
42001;BME280;27689;48.390;10.856;2022-11-20T07:51:27;95665.66;;;5.35;100.00
42001;BME280;27689;48.390;10.856;2022-11-20T07:54:11;95668.72;;;5.40;100.00
42001;BME280;27689;48.390;10.856;2022-11-20T07:56:54;95657.38;;;5.41;100.00
42001;BME280;27689;48.390;10.856;2022-11-20T07:59:39;95659.28;;;5.39;99.42
42001;BME280;27689;48.390;10.856;2022-11-20T08:02:23;95662.06;;;5.47;99.59
42001;BME280;27689;48.390;10.856;2022-11-20T08:05:08;95665.78;;;5.54;99.78
42001;BME280;27689;48.390;10.856;2022-11-20T08:07:52;95666.63;;;5.54;99.23
42001;BME280;27689;48.390;10.856;2022-11-20T08:10:37;95672.84;;;5.63;98.17
42001;BME280;27689;48.390;10.856;2022-11-20T08:13:21;95665.19;;;5.61;98.52
42001;BME280;27689;48.390;10.856;2022-11-20T08:16:25;95675.88;;;5.68;98.34
42001;BME280;27689;48.390;10.856;2022-11-20T08:19:09;95669.47;;;5.72;99.01
42001;BME280;27689;48.390;10.856;2022-11-20T08:21:54;95665.25;;;5.81;97.57
42001;BME280;27689;48.390;10.856;2022-11-20T08:24:39;95669.25;;;5.85;97.20
42001;BME280;27689;48.390;10.856;2022-11-20T08:27:23;95673.50;;;5.86;96.47
42001;BME280;27689;48.390;10.856;2022-11-20T08:30:07;95679.53;;;5.86;96.66
42001;BME280;27689;48.390;10.856;2022-11-20T08:32:52;95687.59;;;5.83;96.41
42001;BME280;27689;48.390;10.856;2022-11-20T08:35:36;95684.50;;;5.89;95.54
42001;BME280;27689;48.390;10.856;2022-11-20T08:38:21;95677.44;;;5.80;96.66
42001;BME280;27689;48.390;10.856;2022-11-20T08:41:05;95677.19;;;5.83;97.34
42001;BME280;27689;48.390;10.856;2022-11-20T08:44:09;95677.19;;;5.83;98.08
42001;BME280;27689;48.390;10.856;2022-11-20T08:46:53;95672.25;;;5.80;97.39
42001;BME280;27689;48.390;10.856;2022-11-20T08:49:37;95666.31;;;5.89;97.30
42001;BME280;27689;48.390;10.856;2022-11-20T08:52:21;95670.56;;;5.90;97.49
42001;BME280;27689;48.390;10.856;2022-11-20T08:55:06;95668.91;;;5.89;97.12
42001;BME280;27689;48.390;10.856;2022-11-20T08:57:50;95674.13;;;5.89;96.83
42001;BME280;27689;48.390;10.856;2022-11-20T09:00:34;95671.53;;;5.89;98.32
42001;BME280;27689;48.390;10.856;2022-11-20T09:03:19;95674.03;;;6.00;97.46
42001;BME280;27689;48.390;10.856;2022-11-20T09:06:05;95684.22;;;6.13;96.44
42001;BME280;27689;48.390;10.856;2022-11-20T09:08:53;95678.72;;;6.07;96.61
42001;BME280;27689;48.390;10.856;2022-11-20T09:11:37;95666.94;;;6.03;97.50
42001;BME280;27689;48.390;10.856;2022-11-20T09:14:21;95672.13;;;6.03;97.52
42001;BME280;27689;48.390;10.856;2022-11-20T09:17:09;95676.06;;;6.27;96.88
42001;BME280;27689;48.390;10.856;2022-11-20T09:19:54;95675.06;;;6.19;96.50
42001;BME280;27689;48.390;10.856;2022-11-20T09:22:39;95672.97;;;6.13;97.15
42001;BME280;27689;48.390;10.856;2022-11-20T09:25:24;95682.75;;;6.20;96.37
42001;BME280;27689;48.390;10.856;2022-11-20T09:28:08;95675.22;;;6.27;95.92
42001;BME280;27689;48.390;10.856;2022-11-20T09:30:53;95680.75;;;6.33;96.19
42001;BME280;27689;48.390;10.856;2022-11-20T09:33:37;95686.50;;;6.37;95.33
42001;BME280;27689;48.390;10.856;2022-11-20T09:36:21;95681.91;;;6.50;95.41
42001;BME280;27689;48.390;10.856;2022-11-20T09:39:05;95662.72;;;6.51;92.79
42001;BME280;27689;48.390;10.856;2022-11-20T09:42:17;95668.59;;;6.53;93.31
42001;BME280;27689;48.390;10.856;2022-11-20T09:45:36;95668.47;;;6.55;95.04
42001;BME280;27689;48.390;10.856;2022-11-20T09:51:36;95661.97;;;6.80;92.59
42001;BME280;27689;48.390;10.856;2022-11-20T09:54:27;95660.59;;;6.85;92.78
42001;BME280;27689;48.390;10.856;2022-11-20T09:57:21;95654.84;;;6.82;91.26
42001;BME280;27689;48.390;10.856;2022-11-20T10:00:10;95645.78;;;6.86;90.72
42001;BME280;27689;48.390;10.856;2022-11-20T10:03:06;95661.41;;;6.76;91.40
42001;BME280;27689;48.390;10.856;2022-11-20T10:05:56;95639.06;;;6.73;91.52
42001;BME280;27689;48.390;10.856;2022-11-20T10:08:58;95637.97;;;6.76;91.99
42001;BME280;27689;48.390;10.856;2022-11-20T10:30:13;95654.56;;;6.75;91.83
42001;BME280;27689;48.390;10.856;2022-11-20T10:33:21;95657.97;;;6.76;91.74
42001;BME280;27689;48.390;10.856;2022-11-20T10:39:14;95660.31;;;6.79;90.84
42001;BME280;27689;48.390;10.856;2022-11-20T10:42:01;95658.50;;;6.69;91.58
42001;BME280;27689;48.390;10.856;2022-11-20T10:44:55;95659.22;;;6.81;91.49
42001;BME280;27689;48.390;10.856;2022-11-20T10:47:45;95657.84;;;6.77;89.87
42001;BME280;27689;48.390;10.856;2022-11-20T10:50:29;95666.09;;;6.82;89.31
42001;BME280;27689;48.390;10.856;2022-11-20T10:54:04;95657.72;;;6.79;90.69
42001;BME280;27689;48.390;10.856;2022-11-20T10:56:33;95656.63;;;6.81;89.16
42001;BME280;27689;48.390;10.856;2022-11-20T11:02:23;95652.50;;;6.79;89.74
42001;BME280;27689;48.390;10.856;2022-11-20T11:05:18;95649.91;;;6.79;89.45
42001;BME280;27689;48.390;10.856;2022-11-20T11:08:13;95640.31;;;6.79;88.89
42001;BME280;27689;48.390;10.856;2022-11-20T11:11:00;95650.84;;;6.87;90.02
42001;BME280;27689;48.390;10.856;2022-11-20T11:13:46;95641.53;;;6.85;90.82
42001;BME280;27689;48.390;10.856;2022-11-20T11:16:30;95639.63;;;6.77;93.07
42001;BME280;27689;48.390;10.856;2022-11-20T11:19:14;95622.22;;;6.78;93.87
42001;BME280;27689;48.390;10.856;2022-11-20T11:21:59;95631.94;;;6.76;93.94
42001;BME280;27689;48.390;10.856;2022-11-20T11:24:52;95620.31;;;6.80;93.62
42001;BME280;27689;48.390;10.856;2022-11-20T11:27:48;95629.34;;;6.85;92.73
42001;BME280;27689;48.390;10.856;2022-11-20T11:30:43;95622.50;;;6.84;92.29
42001;BME280;27689;48.390;10.856;2022-11-20T11:33:29;95623.59;;;6.91;92.40
42001;BME280;27689;48.390;10.856;2022-11-20T11:36:20;95628.69;;;6.93;91.89
42001;BME280;27689;48.390;10.856;2022-11-20T11:39:10;95624.41;;;7.01;91.14
42001;BME280;27689;48.390;10.856;2022-11-20T11:41:55;95624.97;;;7.05;91.87
42001;BME280;27689;48.390;10.856;2022-11-20T11:44:44;95618.94;;;7.04;92.36
42001;BME280;27689;48.390;10.856;2022-11-20T11:47:48;95609.59;;;6.83;90.41
42001;BME280;27689;48.390;10.856;2022-11-20T11:50:33;95612.63;;;6.88;91.08
42001;BME280;27689;48.390;10.856;2022-11-20T11:53:19;95610.59;;;6.82;90.94
42001;BME280;27689;48.390;10.856;2022-11-20T11:56:09;95616.06;;;6.79;91.68
42001;BME280;27689;48.390;10.856;2022-11-20T11:58:57;95618.94;;;6.76;91.29
42001;BME280;27689;48.390;10.856;2022-11-20T12:01:48;95615.09;;;6.80;91.85
42001;BME280;27689;48.390;10.856;2022-11-20T12:04:50;95612.78;;;6.77;92.90
42001;BME280;27689;48.390;10.856;2022-11-20T12:07:41;95605.09;;;6.75;93.28
42001;BME280;27689;48.390;10.856;2022-11-20T12:10:39;95611.69;;;6.79;95.04
42001;BME280;27689;48.390;10.856;2022-11-20T12:13:40;95604.41;;;6.83;94.48
42001;BME280;27689;48.390;10.856;2022-11-20T12:16:26;95614.81;;;6.73;95.34
42001;BME280;27689;48.390;10.856;2022-11-20T12:19:12;95607.44;;;6.78;95.67
42001;BME280;27689;48.390;10.856;2022-11-20T12:36:36;95600.41;;;6.59;97.49
42001;BME280;27689;48.390;10.856;2022-11-20T12:39:30;95604.13;;;6.66;98.54
42001;BME280;27689;48.390;10.856;2022-11-20T12:58:44;95581.53;;;6.77;96.53
42001;BME280;27689;48.390;10.856;2022-11-20T13:01:45;95588.53;;;6.76;96.72
42001;BME280;27689;48.390;10.856;2022-11-20T13:07:44;95593.16;;;6.72;96.87
42001;BME280;27689;48.390;10.856;2022-11-20T13:10:59;95592.47;;;6.70;97.12
42001;BME280;27689;48.390;10.856;2022-11-20T13:19:56;95594.00;;;6.73;96.38
42001;BME280;27689;48.390;10.856;2022-11-20T13:22:53;95594.00;;;6.73;96.87
42001;BME280;27689;48.390;10.856;2022-11-20T13:25:43;95581.38;;;6.68;97.56
42001;BME280;27689;48.390;10.856;2022-11-20T13:28:29;95587.41;;;6.59;98.36
42001;BME280;27689;48.390;10.856;2022-11-20T13:31:34;95577.53;;;6.53;98.77
42001;BME280;27689;48.390;10.856;2022-11-20T13:34:26;95575.63;;;6.55;99.16
42001;BME280;27689;48.390;10.856;2022-11-20T13:37:25;95574.81;;;6.64;98.54
42001;BME280;27689;48.390;10.856;2022-11-20T13:46:15;95566.31;;;6.53;99.47
42001;BME280;27689;48.390;10.856;2022-11-20T13:48:59;95578.91;;;6.57;99.78
42001;BME280;27689;48.390;10.856;2022-11-20T13:51:54;95580.00;;;6.55;99.28
42001;BME280;27689;48.390;10.856;2022-11-20T14:00:29;95565.59;;;6.41;100.00
42001;BME280;27689;48.390;10.856;2022-11-20T14:03:21;95575.34;;;6.49;100.00
42001;BME280;27689;48.390;10.856;2022-11-20T14:06:14;95573.13;;;6.44;100.00
42001;BME280;27689;48.390;10.856;2022-11-20T14:09:04;95566.59;;;6.50;100.00
42001;BME280;27689;48.390;10.856;2022-11-20T14:11:48;95571.91;;;6.48;100.00
42001;BME280;27689;48.390;10.856;2022-11-20T14:14:33;95579.72;;;6.48;100.00
42001;BME280;27689;48.390;10.856;2022-11-20T14:17:19;95575.59;;;6.46;100.00
42001;BME280;27689;48.390;10.856;2022-11-20T14:20:06;95577.53;;;6.53;100.00
42001;BME280;27689;48.390;10.856;2022-11-20T14:22:55;95573.69;;;6.48;100.00
42001;BME280;27689;48.390;10.856;2022-11-20T14:25:42;95584.66;;;6.51;100.00
42001;BME280;27689;48.390;10.856;2022-11-20T14:28:30;95584.38;;;6.54;99.16
42001;BME280;27689;48.390;10.856;2022-11-20T14:31:22;95582.47;;;6.47;98.89
42001;BME280;27689;48.390;10.856;2022-11-20T14:34:16;95572.19;;;6.35;99.57
42001;BME280;27689;48.390;10.856;2022-11-20T14:37:02;95560.81;;;6.36;100.00
42001;BME280;27689;48.390;10.856;2022-11-20T14:39:55;95570.53;;;6.44;99.86
42001;BME280;27689;48.390;10.856;2022-11-20T14:42:43;95556.44;;;6.47;99.37
42001;BME280;27689;48.390;10.856;2022-11-20T14:45:27;95557.78;;;6.41;98.82
42001;BME280;27689;48.390;10.856;2022-11-20T14:48:12;95561.91;;;6.44;99.29
42001;BME280;27689;48.390;10.856;2022-11-20T14:50:56;95575.34;;;6.49;98.69
42001;BME280;27689;48.390;10.856;2022-11-20T14:53:40;95562.34;;;6.49;98.06
42001;BME280;27689;48.390;10.856;2022-11-20T14:56:24;95563.44;;;6.46;98.15
42001;BME280;27689;48.390;10.856;2022-11-20T14:59:09;95560.56;;;6.49;98.14
42001;BME280;27689;48.390;10.856;2022-11-20T15:01:56;95564.38;;;6.45;98.19
42001;BME280;27689;48.390;10.856;2022-11-20T15:04:49;95566.31;;;6.53;98.10
42001;BME280;27689;48.390;10.856;2022-11-20T15:07:39;95563.69;;;6.43;98.31
42001;BME280;27689;48.390;10.856;2022-11-20T15:10:25;95558.34;;;6.35;98.81
42001;BME280;27689;48.390;10.856;2022-11-20T15:13:16;95572.00;;;6.27;99.42
42001;BME280;27689;48.390;10.856;2022-11-20T15:16:03;95556.00;;;6.32;98.95
42001;BME280;27689;48.390;10.856;2022-11-20T15:18:47;95551.47;;;6.24;97.98
42001;BME280;27689;48.390;10.856;2022-11-20T15:21:32;95553.53;;;6.21;98.08
42001;BME280;27689;48.390;10.856;2022-11-20T15:24:16;95556.84;;;6.23;98.16
42001;BME280;27689;48.390;10.856;2022-11-20T15:27:00;95546.69;;;6.20;97.26
42001;BME280;27689;48.390;10.856;2022-11-20T15:29:44;95550.94;;;6.21;97.45
42001;BME280;27689;48.390;10.856;2022-11-20T15:32:28;95555.56;;;6.17;97.41
42001;BME280;27689;48.390;10.856;2022-11-20T15:35:13;95557.88;;;6.11;97.46
42001;BME280;27689;48.390;10.856;2022-11-20T15:37:57;95557.59;;;6.04;97.25
42001;BME280;27689;48.390;10.856;2022-11-20T15:40:41;95558.94;;;5.98;97.12
42001;BME280;27689;48.390;10.856;2022-11-20T15:43:25;95552.66;;;6.01;97.78
42001;BME280;27689;48.390;10.856;2022-11-20T15:46:12;95562.38;;;5.99;97.37
42001;BME280;27689;48.390;10.856;2022-11-20T15:48:57;95560.84;;;5.96;97.53
42001;BME280;27689;48.390;10.856;2022-11-20T15:51:47;95553.34;;;5.93;97.79
42001;BME280;27689;48.390;10.856;2022-11-20T15:54:32;95564.00;;;5.90;98.05
42001;BME280;27689;48.390;10.856;2022-11-20T15:57:16;95551.69;;;5.92;98.10
42001;BME280;27689;48.390;10.856;2022-11-20T16:00:00;95553.59;;;5.90;98.52
42001;BME280;27689;48.390;10.856;2022-11-20T16:02:44;95550.03;;;5.91;97.85
42001;BME280;27689;48.390;10.856;2022-11-20T16:05:28;95543.41;;;5.87;98.45